sensor_id;sensor_type;location;lat;lon;timestamp;pressure;altitude;pressure_sealevel;temperature;humidity
22651;BME280;11492;42.646;23.400;2023-01-29T00:01:32;95150.13;;;1.77;74.33
22651;BME280;11492;42.646;23.400;2023-01-29T00:03:58;95149.63;;;1.83;73.93
22651;BME280;11492;42.646;23.400;2023-01-29T00:06:23;95144.41;;;1.84;74.36
22651;BME280;11492;42.646;23.400;2023-01-29T00:08:49;95148.69;;;1.84;73.67
22651;BME280;11492;42.646;23.400;2023-01-29T00:11:14;95154.22;;;1.89;73.39
22651;BME280;11492;42.646;23.400;2023-01-29T00:13:45;95161.84;;;1.89;74.15
22651;BME280;11492;42.646;23.400;2023-01-29T00:16:10;95163.22;;;1.73;74.07
22651;BME280;11492;42.646;23.400;2023-01-29T00:18:39;95170.47;;;1.77;74.09
22651;BME280;11492;42.646;23.400;2023-01-29T00:21:16;95163.44;;;1.70;74.42
22651;BME280;11492;42.646;23.400;2023-01-29T00:23:43;95170.22;;;1.80;74.41
22651;BME280;11492;42.646;23.400;2023-01-29T00:26:09;95178.06;;;1.88;73.59
22651;BME280;11492;42.646;23.400;2023-01-29T00:28:35;95181.13;;;1.91;73.86
22651;BME280;11492;42.646;23.400;2023-01-29T00:31:18;95181.03;;;1.93;74.52
22651;BME280;11492;42.646;23.400;2023-01-29T00:33:44;95185.06;;;1.95;74.38
22651;BME280;11492;42.646;23.400;2023-01-29T00:36:11;95185.31;;;1.92;74.32
22651;BME280;11492;42.646;23.400;2023-01-29T00:38:37;95187.41;;;1.87;73.63
22651;BME280;11492;42.646;23.400;2023-01-29T00:41:11;95185.41;;;1.91;73.84
22651;BME280;11492;42.646;23.400;2023-01-29T00:43:55;95189.34;;;1.95;74.16
22651;BME280;11492;42.646;23.400;2023-01-29T00:46:39;95182.63;;;1.94;73.85
22651;BME280;11492;42.646;23.400;2023-01-29T00:49:06;95179.47;;;2.01;74.33
22651;BME280;11492;42.646;23.400;2023-01-29T00:51:31;95177.63;;;2.03;74.36
22651;BME280;11492;42.646;23.400;2023-01-29T00:53:58;95189.28;;;2.05;73.65
22651;BME280;11492;42.646;23.400;2023-01-29T00:56:24;95182.56;;;2.04;74.47
22651;BME280;11492;42.646;23.400;2023-01-29T00:58:49;95170.78;;;1.83;74.99
22651;BME280;11492;42.646;23.400;2023-01-29T01:01:15;95179.34;;;1.82;75.27
22651;BME280;11492;42.646;23.400;2023-01-29T01:03:40;95183.25;;;1.86;75.34
22651;BME280;11492;42.646;23.400;2023-01-29T01:06:08;95178.59;;;1.91;75.04
22651;BME280;11492;42.646;23.400;2023-01-29T01:08:34;95178.59;;;1.91;74.39
22651;BME280;11492;42.646;23.400;2023-01-29T01:11:19;95180.34;;;1.91;74.98
22651;BME280;11492;42.646;23.400;2023-01-29T01:13:44;95179.53;;;1.90;74.95
22651;BME280;11492;42.646;23.400;2023-01-29T01:16:15;95180.22;;;1.92;74.66
22651;BME280;11492;42.646;23.400;2023-01-29T01:18:41;95190.69;;;1.78;75.18
22651;BME280;11492;42.646;23.400;2023-01-29T01:21:07;95181.75;;;1.84;75.40
22651;BME280;11492;42.646;23.400;2023-01-29T01:23:33;95177.47;;;1.84;76.52
22651;BME280;11492;42.646;23.400;2023-01-29T01:25:59;95174.25;;;1.82;76.01
22651;BME280;11492;42.646;23.400;2023-01-29T01:28:25;95174.69;;;1.67;76.52
22651;BME280;11492;42.646;23.400;2023-01-29T01:30:51;95173.06;;;1.66;75.95
22651;BME280;11492;42.646;23.400;2023-01-29T01:33:16;95172.56;;;1.52;76.31
22651;BME280;11492;42.646;23.400;2023-01-29T01:35:42;95176.06;;;1.60;76.64
22651;BME280;11492;42.646;23.400;2023-01-29T01:38:07;95176.88;;;1.72;77.30
22651;BME280;11492;42.646;23.400;2023-01-29T01:40:32;95176.06;;;1.71;76.89
22651;BME280;11492;42.646;23.400;2023-01-29T01:42:59;95179.28;;;1.73;76.29
22651;BME280;11492;42.646;23.400;2023-01-29T01:45:26;95171.78;;;1.72;75.92
22651;BME280;11492;42.646;23.400;2023-01-29T01:47:56;95175.63;;;1.66;76.93
22651;BME280;11492;42.646;23.400;2023-01-29T01:50:46;95182.25;;;1.78;76.07
22651;BME280;11492;42.646;23.400;2023-01-29T01:53:19;95186.97;;;1.62;75.86
22651;BME280;11492;42.646;23.400;2023-01-29T01:55:49;95181.38;;;1.68;76.38
22651;BME280;11492;42.646;23.400;2023-01-29T01:58:27;95192.50;;;1.67;76.31
22651;BME280;11492;42.646;23.400;2023-01-29T02:00:54;95194.47;;;1.64;76.43
22651;BME280;11492;42.646;23.400;2023-01-29T02:03:20;95190.25;;;1.43;77.14
22651;BME280;11492;42.646;23.400;2023-01-29T02:06:06;95196.03;;;1.45;77.18
22651;BME280;11492;42.646;23.400;2023-01-29T02:08:55;95193.88;;;1.60;77.15
22651;BME280;11492;42.646;23.400;2023-01-29T02:11:41;95188.16;;;1.48;77.37
22651;BME280;11492;42.646;23.400;2023-01-29T02:14:07;95194.31;;;1.45;76.76
22651;BME280;11492;42.646;23.400;2023-01-29T02:16:34;95185.72;;;1.15;77.88
22651;BME280;11492;42.646;23.400;2023-01-29T02:19:00;95186.84;;;1.22;78.25
22651;BME280;11492;42.646;23.400;2023-01-29T02:21:49;95195.78;;;1.17;78.28
22651;BME280;11492;42.646;23.400;2023-01-29T02:27:12;95190.81;;;1.15;78.86
22651;BME280;11492;42.646;23.400;2023-01-29T02:29:51;95195.16;;;1.24;78.74
22651;BME280;11492;42.646;23.400;2023-01-29T02:35:10;95204.44;;;1.14;79.12
22651;BME280;11492;42.646;23.400;2023-01-29T02:38:16;95210.72;;;0.99;79.21
22651;BME280;11492;42.646;23.400;2023-01-29T02:40:50;95215.16;;;1.18;79.29
22651;BME280;11492;42.646;23.400;2023-01-29T02:49:30;95212.81;;;1.36;79.83
22651;BME280;11492;42.646;23.400;2023-01-29T02:52:04;95216.38;;;1.45;78.77
22651;BME280;11492;42.646;23.400;2023-01-29T02:54:37;95220.44;;;1.36;78.89
22651;BME280;11492;42.646;23.400;2023-01-29T02:57:45;95217.75;;;1.48;79.83
22651;BME280;11492;42.646;23.400;2023-01-29T03:00:15;95220.00;;;1.31;79.98
22651;BME280;11492;42.646;23.400;2023-01-29T03:02:59;95219.75;;;1.45;78.88
22651;BME280;11492;42.646;23.400;2023-01-29T03:05:36;95226.94;;;1.29;79.56
22651;BME280;11492;42.646;23.400;2023-01-29T03:08:10;95221.47;;;1.34;80.06
22651;BME280;11492;42.646;23.400;2023-01-29T03:10:43;95218.38;;;1.41;79.58
22651;BME280;11492;42.646;23.400;2023-01-29T03:13:18;95210.13;;;1.48;79.60
22651;BME280;11492;42.646;23.400;2023-01-29T03:15:48;95224.22;;;1.52;78.99
22651;BME280;11492;42.646;23.400;2023-01-29T03:18:24;95217.25;;;1.13;79.99
22651;BME280;11492;42.646;23.400;2023-01-29T03:20:55;95228.81;;;1.17;80.47
22651;BME280;11492;42.646;23.400;2023-01-29T03:23:27;95226.28;;;1.17;80.24
22651;BME280;11492;42.646;23.400;2023-01-29T03:26:12;95228.66;;;1.29;80.88
22651;BME280;11492;42.646;23.400;2023-01-29T03:28:59;95229.91;;;1.34;79.36
22651;BME280;11492;42.646;23.400;2023-01-29T03:31:43;95231.53;;;1.46;80.12
22651;BME280;11492;42.646;23.400;2023-01-29T03:34:28;95230.75;;;1.35;79.51
22651;BME280;11492;42.646;23.400;2023-01-29T03:37:03;95224.53;;;1.17;79.26
22651;BME280;11492;42.646;23.400;2023-01-29T03:39:33;95234.22;;;1.23;79.17
22651;BME280;11492;42.646;23.400;2023-01-29T03:42:23;95223.63;;;1.07;78.38
22651;BME280;11492;42.646;23.400;2023-01-29T03:47:43;95230.41;;;1.28;79.41
22651;BME280;11492;42.646;23.400;2023-01-29T03:52:48;95222.19;;;1.36;79.25
22651;BME280;11492;42.646;23.400;2023-01-29T04:00:44;95231.38;;;1.06;81.09
22651;BME280;11492;42.646;23.400;2023-01-29T04:03:34;95230.31;;;1.08;79.93
22651;BME280;11492;42.646;23.400;2023-01-29T04:06:17;95232.78;;;0.88;81.36
22651;BME280;11492;42.646;23.400;2023-01-29T04:08:52;95228.69;;;1.07;81.57
22651;BME280;11492;42.646;23.400;2023-01-29T04:11:21;95227.56;;;1.00;81.06
22651;BME280;11492;42.646;23.400;2023-01-29T04:13:47;95228.81;;;1.17;81.41
22651;BME280;11492;42.646;23.400;2023-01-29T04:16:17;95237.22;;;1.28;80.38
22651;BME280;11492;42.646;23.400;2023-01-29T04:18:48;95240.53;;;1.39;81.33
22651;BME280;11492;42.646;23.400;2023-01-29T04:21:14;95242.97;;;1.41;80.11
22651;BME280;11492;42.646;23.400;2023-01-29T04:23:40;95237.31;;;1.37;80.36
22651;BME280;11492;42.646;23.400;2023-01-29T04:34:26;95233.19;;;1.25;79.90
22651;BME280;11492;42.646;23.400;2023-01-29T04:39:48;95244.38;;;1.23;79.62
22651;BME280;11492;42.646;23.400;2023-01-29T04:48:16;95247.84;;;1.22;80.80
22651;BME280;11492;42.646;23.400;2023-01-29T04:51:09;95249.94;;;1.28;80.66
22651;BME280;11492;42.646;23.400;2023-01-29T04:56:20;95256.16;;;1.24;78.82
22651;BME280;11492;42.646;23.400;2023-01-29T04:59:18;95248.34;;;1.16;79.56
22651;BME280;11492;42.646;23.400;2023-01-29T05:01:47;95249.94;;;1.17;79.21
22651;BME280;11492;42.646;23.400;2023-01-29T05:04:15;95253.28;;;1.28;79.45
22651;BME280;11492;42.646;23.400;2023-01-29T05:06:44;95252.91;;;1.33;78.82
22651;BME280;11492;42.646;23.400;2023-01-29T05:09:12;95252.44;;;1.39;78.27
22651;BME280;11492;42.646;23.400;2023-01-29T05:11:39;95250.16;;;1.36;78.47
22651;BME280;11492;42.646;23.400;2023-01-29T05:14:08;95249.50;;;1.12;79.87
22651;BME280;11492;42.646;23.400;2023-01-29T05:16:56;95260.56;;;1.33;79.06
22651;BME280;11492;42.646;23.400;2023-01-29T05:19:23;95267.59;;;1.19;79.56
22651;BME280;11492;42.646;23.400;2023-01-29T05:21:49;95266.56;;;1.32;79.48
22651;BME280;11492;42.646;23.400;2023-01-29T05:24:17;95262.63;;;1.39;78.63
22651;BME280;11492;42.646;23.400;2023-01-29T05:26:46;95258.28;;;1.19;79.45
22651;BME280;11492;42.646;23.400;2023-01-29T05:29:30;95272.13;;;1.26;79.10
22651;BME280;11492;42.646;23.400;2023-01-29T05:31:56;95269.72;;;1.24;78.70
22651;BME280;11492;42.646;23.400;2023-01-29T05:34:21;95274.91;;;1.01;79.63
22651;BME280;11492;42.646;23.400;2023-01-29T05:36:48;95274.56;;;1.06;79.45
22651;BME280;11492;42.646;23.400;2023-01-29T05:39:13;95283.91;;;1.16;79.77
22651;BME280;11492;42.646;23.400;2023-01-29T05:41:38;95283.47;;;1.11;78.88
22651;BME280;11492;42.646;23.400;2023-01-29T05:44:04;95276.19;;;1.07;79.61
22651;BME280;11492;42.646;23.400;2023-01-29T05:46:30;95281.13;;;1.08;80.19
22651;BME280;11492;42.646;23.400;2023-01-29T05:48:55;95279.50;;;1.18;79.83
22651;BME280;11492;42.646;23.400;2023-01-29T05:51:21;95290.28;;;1.11;79.64
22651;BME280;11492;42.646;23.400;2023-01-29T05:53:47;95288.31;;;1.25;80.53
22651;BME280;11492;42.646;23.400;2023-01-29T05:56:12;95288.50;;;1.33;80.31
22651;BME280;11492;42.646;23.400;2023-01-29T05:58:37;95285.75;;;1.36;79.92
22651;BME280;11492;42.646;23.400;2023-01-29T06:01:14;95292.19;;;1.40;79.92
22651;BME280;11492;42.646;23.400;2023-01-29T06:03:40;95299.16;;;1.16;80.51
22651;BME280;11492;42.646;23.400;2023-01-29T06:06:06;95294.41;;;1.33;79.47
22651;BME280;11492;42.646;23.400;2023-01-29T06:08:31;95299.81;;;1.40;80.41
22651;BME280;11492;42.646;23.400;2023-01-29T06:10:57;95302.13;;;1.43;79.31
22651;BME280;11492;42.646;23.400;2023-01-29T06:13:22;95308.63;;;1.36;80.35
22651;BME280;11492;42.646;23.400;2023-01-29T06:15:48;95319.25;;;1.41;79.41
22651;BME280;11492;42.646;23.400;2023-01-29T06:18:13;95314.97;;;1.41;80.05
22651;BME280;11492;42.646;23.400;2023-01-29T06:20:39;95313.09;;;1.54;80.07
22651;BME280;11492;42.646;23.400;2023-01-29T06:23:04;95316.44;;;1.54;80.00
22651;BME280;11492;42.646;23.400;2023-01-29T06:25:30;95316.69;;;1.51;79.51
22651;BME280;11492;42.646;23.400;2023-01-29T06:27:55;95319.34;;;1.50;79.59
22651;BME280;11492;42.646;23.400;2023-01-29T06:30:21;95320.69;;;1.75;83.08
22651;BME280;11492;42.646;23.400;2023-01-29T06:32:46;95331.22;;;1.71;81.30
22651;BME280;11492;42.646;23.400;2023-01-29T06:35:12;95327.31;;;1.67;79.76
22651;BME280;11492;42.646;23.400;2023-01-29T06:37:37;95333.78;;;1.71;79.63
22651;BME280;11492;42.646;23.400;2023-01-29T06:40:03;95334.59;;;1.72;78.83
22651;BME280;11492;42.646;23.400;2023-01-29T06:42:29;95338.50;;;1.65;79.20
22651;BME280;11492;42.646;23.400;2023-01-29T06:44:55;95345.31;;;1.75;78.87
22651;BME280;11492;42.646;23.400;2023-01-29T06:47:20;95346.47;;;1.82;78.90
22651;BME280;11492;42.646;23.400;2023-01-29T06:49:46;95345.19;;;1.87;77.91
22651;BME280;11492;42.646;23.400;2023-01-29T06:52:11;95346.53;;;1.91;77.40
22651;BME280;11492;42.646;23.400;2023-01-29T06:54:37;95337.22;;;1.70;78.56
22651;BME280;11492;42.646;23.400;2023-01-29T06:57:02;95343.63;;;1.96;78.21
22651;BME280;11492;42.646;23.400;2023-01-29T06:59:28;95341.53;;;2.00;78.37
22651;BME280;11492;42.646;23.400;2023-01-29T07:01:53;95351.72;;;2.00;77.58
22651;BME280;11492;42.646;23.400;2023-01-29T07:04:19;95348.25;;;2.01;77.56
22651;BME280;11492;42.646;23.400;2023-01-29T07:06:44;95355.63;;;2.15;78.30
22651;BME280;11492;42.646;23.400;2023-01-29T07:09:13;95348.31;;;2.22;76.98
22651;BME280;11492;42.646;23.400;2023-01-29T07:11:39;95350.69;;;2.34;77.81
22651;BME280;11492;42.646;23.400;2023-01-29T07:14:04;95348.59;;;2.39;76.98
22651;BME280;11492;42.646;23.400;2023-01-29T07:16:31;95355.25;;;2.50;76.69
22651;BME280;11492;42.646;23.400;2023-01-29T07:18:56;95349.22;;;2.51;75.54
22651;BME280;11492;42.646;23.400;2023-01-29T07:21:22;95356.63;;;2.54;76.80
22651;BME280;11492;42.646;23.400;2023-01-29T07:23:47;95359.63;;;2.59;76.20
22651;BME280;11492;42.646;23.400;2023-01-29T07:26:13;95363.47;;;2.54;77.31
22651;BME280;11492;42.646;23.400;2023-01-29T07:28:39;95370.53;;;2.50;76.23
22651;BME280;11492;42.646;23.400;2023-01-29T07:31:05;95367.19;;;2.50;76.00
22651;BME280;11492;42.646;23.400;2023-01-29T07:33:31;95370.31;;;2.12;75.69
22651;BME280;11492;42.646;23.400;2023-01-29T07:35:56;95374.06;;;2.08;76.50
22651;BME280;11492;42.646;23.400;2023-01-29T07:38:22;95380.63;;;2.10;76.72
22651;BME280;11492;42.646;23.400;2023-01-29T07:40:47;95372.03;;;2.22;76.74
22651;BME280;11492;42.646;23.400;2023-01-29T07:43:13;95379.94;;;2.08;77.05
22651;BME280;11492;42.646;23.400;2023-01-29T07:45:39;95378.19;;;2.20;77.89
22651;BME280;11492;42.646;23.400;2023-01-29T07:48:08;95374.28;;;2.05;77.74
22651;BME280;11492;42.646;23.400;2023-01-29T07:50:34;95374.84;;;2.08;78.08
22651;BME280;11492;42.646;23.400;2023-01-29T07:53:00;95374.38;;;2.14;77.75
22651;BME280;11492;42.646;23.400;2023-01-29T07:55:26;95385.94;;;2.18;77.91
22651;BME280;11492;42.646;23.400;2023-01-29T07:57:58;95386.16;;;2.15;77.41
22651;BME280;11492;42.646;23.400;2023-01-29T08:00:24;95382.03;;;2.03;77.64
22651;BME280;11492;42.646;23.400;2023-01-29T08:02:49;95388.63;;;2.06;77.51
22651;BME280;11492;42.646;23.400;2023-01-29T08:05:15;95391.84;;;2.19;78.43
22651;BME280;11492;42.646;23.400;2023-01-29T08:07:40;95389.38;;;2.17;77.59
22651;BME280;11492;42.646;23.400;2023-01-29T08:10:06;95399.44;;;2.29;77.28
22651;BME280;11492;42.646;23.400;2023-01-29T08:12:32;95400.06;;;2.11;78.22
22651;BME280;11492;42.646;23.400;2023-01-29T08:14:57;95388.44;;;2.29;78.91
22651;BME280;11492;42.646;23.400;2023-01-29T08:17:23;95388.44;;;2.29;78.07
22651;BME280;11492;42.646;23.400;2023-01-29T08:19:48;95399.09;;;2.34;77.47
22651;BME280;11492;42.646;23.400;2023-01-29T08:22:13;95392.34;;;2.33;76.35
22651;BME280;11492;42.646;23.400;2023-01-29T08:24:40;95401.69;;;2.43;76.20
22651;BME280;11492;42.646;23.400;2023-01-29T08:27:06;95397.66;;;2.41;76.76
22651;BME280;11492;42.646;23.400;2023-01-29T08:29:31;95398.97;;;2.35;75.61
22651;BME280;11492;42.646;23.400;2023-01-29T08:31:57;95397.00;;;2.39;75.74
22651;BME280;11492;42.646;23.400;2023-01-29T08:34:22;95396.00;;;2.50;75.80
22651;BME280;11492;42.646;23.400;2023-01-29T08:36:48;95402.66;;;2.62;75.88
22651;BME280;11492;42.646;23.400;2023-01-29T08:39:13;95401.69;;;2.74;75.21
22651;BME280;11492;42.646;23.400;2023-01-29T08:41:38;95400.63;;;2.76;74.39
22651;BME280;11492;42.646;23.400;2023-01-29T08:44:04;95408.41;;;2.75;74.13
22651;BME280;11492;42.646;23.400;2023-01-29T08:46:30;95403.38;;;2.64;74.24
22651;BME280;11492;42.646;23.400;2023-01-29T08:48:56;95412.03;;;2.31;73.71
22651;BME280;11492;42.646;23.400;2023-01-29T08:51:21;95417.91;;;2.42;74.64
22651;BME280;11492;42.646;23.400;2023-01-29T08:53:48;95423.44;;;2.47;74.83
22651;BME280;11492;42.646;23.400;2023-01-29T08:56:13;95419.56;;;2.63;74.74
22651;BME280;11492;42.646;23.400;2023-01-29T08:58:40;95428.59;;;2.36;74.27
22651;BME280;11492;42.646;23.400;2023-01-29T09:01:08;95433.63;;;2.47;75.20
22651;BME280;11492;42.646;23.400;2023-01-29T09:03:33;95436.09;;;2.48;73.91
22651;BME280;11492;42.646;23.400;2023-01-29T09:05:59;95433.00;;;2.34;74.72
22651;BME280;11492;42.646;23.400;2023-01-29T09:08:24;95446.50;;;2.46;74.00
22651;BME280;11492;42.646;23.400;2023-01-29T09:10:50;95437.34;;;2.43;73.59
22651;BME280;11492;42.646;23.400;2023-01-29T09:13:15;95444.63;;;2.47;74.31
22651;BME280;11492;42.646;23.400;2023-01-29T09:15:40;95429.00;;;2.52;74.59
22651;BME280;11492;42.646;23.400;2023-01-29T09:18:06;95424.66;;;2.63;74.78
22651;BME280;11492;42.646;23.400;2023-01-29T09:20:31;95427.91;;;2.65;73.77
22651;BME280;11492;42.646;23.400;2023-01-29T09:22:57;95433.69;;;2.36;73.25
22651;BME280;11492;42.646;23.400;2023-01-29T09:25:23;95432.41;;;2.31;73.86
22651;BME280;11492;42.646;23.400;2023-01-29T09:27:48;95422.06;;;2.12;74.43
22651;BME280;11492;42.646;23.400;2023-01-29T09:30:14;95430.56;;;2.33;74.68
22651;BME280;11492;42.646;23.400;2023-01-29T09:32:40;95427.28;;;2.42;74.56
22651;BME280;11492;42.646;23.400;2023-01-29T09:35:05;95420.53;;;2.51;74.45
22651;BME280;11492;42.646;23.400;2023-01-29T09:37:31;95423.03;;;2.62;73.49
22651;BME280;11492;42.646;23.400;2023-01-29T09:39:56;95417.34;;;2.90;77.45
22651;BME280;11492;42.646;23.400;2023-01-29T09:42:28;95418.63;;;2.95;73.89
22651;BME280;11492;42.646;23.400;2023-01-29T09:45:05;95421.59;;;3.00;73.86
22651;BME280;11492;42.646;23.400;2023-01-29T09:47:35;95405.81;;;2.86;72.48
22651;BME280;11492;42.646;23.400;2023-01-29T09:50:23;95412.47;;;2.47;72.23
22651;BME280;11492;42.646;23.400;2023-01-29T09:55:49;95406.09;;;2.72;73.12
22651;BME280;11492;42.646;23.400;2023-01-29T09:58:31;95403.72;;;2.60;72.43
22651;BME280;11492;42.646;23.400;2023-01-29T10:04:06;95408.41;;;2.75;73.13
22651;BME280;11492;42.646;23.400;2023-01-29T10:25:22;95386.00;;;2.27;72.49
22651;BME280;11492;42.646;23.400;2023-01-29T10:27:51;95388.84;;;2.45;74.14
22651;BME280;11492;42.646;23.400;2023-01-29T10:30:33;95385.91;;;2.60;73.16
22651;BME280;11492;42.646;23.400;2023-01-29T10:33:05;95384.88;;;2.51;72.62
22651;BME280;11492;42.646;23.400;2023-01-29T10:35:40;95378.97;;;2.51;73.25
22651;BME280;11492;42.646;23.400;2023-01-29T10:40:45;95374.47;;;2.54;73.16
22651;BME280;11492;42.646;23.400;2023-01-29T10:43:19;95371.69;;;2.47;73.15
22651;BME280;11492;42.646;23.400;2023-01-29T10:48:39;95381.31;;;2.23;72.92
22651;BME280;11492;42.646;23.400;2023-01-29T10:53:54;95376.94;;;2.45;73.60
22651;BME280;11492;42.646;23.400;2023-01-29T10:58:55;95365.38;;;2.61;73.62
22651;BME280;11492;42.646;23.400;2023-01-29T11:01:23;95353.75;;;2.68;73.18
22651;BME280;11492;42.646;23.400;2023-01-29T11:04:05;95362.22;;;2.69;72.59
22651;BME280;11492;42.646;23.400;2023-01-29T11:06:34;95370.84;;;2.57;72.57
22651;BME280;11492;42.646;23.400;2023-01-29T11:09:10;95365.81;;;2.66;72.27
22651;BME280;11492;42.646;23.400;2023-01-29T11:11:56;95363.91;;;2.28;72.56
22651;BME280;11492;42.646;23.400;2023-01-29T11:14:27;95350.97;;;2.20;72.97
22651;BME280;11492;42.646;23.400;2023-01-29T11:16:54;95366.88;;;2.44;73.40
22651;BME280;11492;42.646;23.400;2023-01-29T11:19:42;95359.91;;;2.46;74.27
22651;BME280;11492;42.646;23.400;2023-01-29T11:22:16;95338.78;;;2.54;73.70
22651;BME280;11492;42.646;23.400;2023-01-29T11:24:44;95351.16;;;2.79;73.66
22651;BME280;11492;42.646;23.400;2023-01-29T11:27:24;95358.13;;;2.97;72.79
22651;BME280;11492;42.646;23.400;2023-01-29T11:29:52;95353.59;;;2.60;71.91
22651;BME280;11492;42.646;23.400;2023-01-29T11:35:00;95346.50;;;2.44;72.44
22651;BME280;11492;42.646;23.400;2023-01-29T11:37:46;95337.56;;;2.69;72.86
22651;BME280;11492;42.646;23.400;2023-01-29T11:42:44;95318.06;;;3.08;72.45
22651;BME280;11492;42.646;23.400;2023-01-29T11:47:47;95327.13;;;3.31;70.12
22651;BME280;11492;42.646;23.400;2023-01-29T11:50:20;95309.56;;;3.28;73.17
22651;BME280;11492;42.646;23.400;2023-01-29T11:52:48;95325.84;;;3.46;71.19
22651;BME280;11492;42.646;23.400;2023-01-29T11:55:20;95315.81;;;3.53;71.29
22651;BME280;11492;42.646;23.400;2023-01-29T11:57:49;95310.50;;;3.75;70.29
22651;BME280;11492;42.646;23.400;2023-01-29T12:00:23;95318.28;;;3.83;69.10
22651;BME280;11492;42.646;23.400;2023-01-29T12:03:19;95316.28;;;3.77;68.83
22651;BME280;11492;42.646;23.400;2023-01-29T12:05:58;95324.19;;;3.35;68.81
22651;BME280;11492;42.646;23.400;2023-01-29T12:08:24;95317.44;;;3.54;70.38
22651;BME280;11492;42.646;23.400;2023-01-29T12:10:50;95323.56;;;3.43;69.70
22651;BME280;11492;42.646;23.400;2023-01-29T12:13:30;95311.91;;;3.49;70.35
22651;BME280;11492;42.646;23.400;2023-01-29T12:18:43;95309.28;;;3.31;70.15
22651;BME280;11492;42.646;23.400;2023-01-29T12:21:17;95307.25;;;3.25;70.14
22651;BME280;11492;42.646;23.400;2023-01-29T12:27:18;95316.06;;;3.12;70.66
22651;BME280;11492;42.646;23.400;2023-01-29T12:29:55;95307.53;;;3.22;70.40
22651;BME280;11492;42.646;23.400;2023-01-29T12:32:38;95316.13;;;3.21;70.75
22651;BME280;11492;42.646;23.400;2023-01-29T12:38:13;95327.34;;;3.19;71.85
22651;BME280;11492;42.646;23.400;2023-01-29T12:43:48;95320.66;;;3.18;70.67
22651;BME280;11492;42.646;23.400;2023-01-29T12:46:27;95310.59;;;3.16;71.24
22651;BME280;11492;42.646;23.400;2023-01-29T12:48:57;95316.59;;;3.15;71.18
22651;BME280;11492;42.646;23.400;2023-01-29T12:51:39;95323.00;;;3.10;71.02
22651;BME280;11492;42.646;23.400;2023-01-29T12:54:11;95311.63;;;3.14;69.75
22651;BME280;11492;42.646;23.400;2023-01-29T12:56:45;95313.47;;;3.32;72.34
22651;BME280;11492;42.646;23.400;2023-01-29T12:59:18;95305.97;;;3.40;70.85
22651;BME280;11492;42.646;23.400;2023-01-29T13:01:49;95314.53;;;3.68;71.44
22651;BME280;11492;42.646;23.400;2023-01-29T13:04:40;95317.66;;;3.90;70.28
22651;BME280;11492;42.646;23.400;2023-01-29T13:07:22;95316.66;;;3.63;69.18
22651;BME280;11492;42.646;23.400;2023-01-29T13:09:53;95317.59;;;3.62;69.03
22651;BME280;11492;42.646;23.400;2023-01-29T13:12:21;95321.66;;;3.74;69.28
22651;BME280;11492;42.646;23.400;2023-01-29T13:14:55;95314.09;;;3.72;68.71
22651;BME280;11492;42.646;23.400;2023-01-29T13:17:27;95305.03;;;3.41;69.09
22651;BME280;11492;42.646;23.400;2023-01-29T13:19:58;95304.81;;;3.53;69.15
22651;BME280;11492;42.646;23.400;2023-01-29T13:22:34;95310.25;;;3.39;68.30
22651;BME280;11492;42.646;23.400;2023-01-29T13:25:02;95308.31;;;3.52;69.01
22651;BME280;11492;42.646;23.400;2023-01-29T13:27:30;95295.47;;;3.33;68.75
22651;BME280;11492;42.646;23.400;2023-01-29T13:29:56;95314.94;;;3.82;70.78
22651;BME280;11492;42.646;23.400;2023-01-29T13:32:27;95316.34;;;4.14;68.66
22651;BME280;11492;42.646;23.400;2023-01-29T13:34:55;95319.81;;;4.13;68.29
22651;BME280;11492;42.646;23.400;2023-01-29T13:39:54;95330.56;;;3.89;66.89
22651;BME280;11492;42.646;23.400;2023-01-29T13:42:24;95332.31;;;3.88;67.29
22651;BME280;11492;42.646;23.400;2023-01-29T13:44:53;95325.13;;;3.64;67.88
22651;BME280;11492;42.646;23.400;2023-01-29T13:47:28;95326.88;;;3.72;68.91
22651;BME280;11492;42.646;23.400;2023-01-29T13:52:45;95343.09;;;3.53;69.77
22651;BME280;11492;42.646;23.400;2023-01-29T14:05:38;95347.69;;;3.29;68.95
22651;BME280;11492;42.646;23.400;2023-01-29T14:10:42;95345.97;;;3.10;69.54
22651;BME280;11492;42.646;23.400;2023-01-29T14:15:43;95345.59;;;3.44;71.84
22651;BME280;11492;42.646;23.400;2023-01-29T14:18:18;95345.41;;;3.36;69.56
22651;BME280;11492;42.646;23.400;2023-01-29T14:26:19;95354.09;;;3.24;69.36
22651;BME280;11492;42.646;23.400;2023-01-29T14:29:01;95368.97;;;3.19;69.63
22651;BME280;11492;42.646;23.400;2023-01-29T14:31:31;95369.72;;;3.10;69.22
22651;BME280;11492;42.646;23.400;2023-01-29T14:34:02;95366.50;;;3.08;69.29
22651;BME280;11492;42.646;23.400;2023-01-29T14:36:40;95378.22;;;2.91;69.06
22651;BME280;11492;42.646;23.400;2023-01-29T14:39:20;95375.22;;;2.86;68.75
22651;BME280;11492;42.646;23.400;2023-01-29T14:41:48;95382.94;;;2.75;69.52
22651;BME280;11492;42.646;23.400;2023-01-29T14:49:58;95374.19;;;2.57;70.99
22651;BME280;11492;42.646;23.400;2023-01-29T14:52:28;95376.31;;;2.52;71.46
22651;BME280;11492;42.646;23.400;2023-01-29T14:54:59;95368.50;;;2.65;71.85
22651;BME280;11492;42.646;23.400;2023-01-29T14:57:28;95371.50;;;2.70;71.54
22651;BME280;11492;42.646;23.400;2023-01-29T14:59:57;95372.56;;;2.36;70.70
22651;BME280;11492;42.646;23.400;2023-01-29T15:02:28;95369.88;;;2.18;72.36
22651;BME280;11492;42.646;23.400;2023-01-29T15:05:02;95366.47;;;2.28;73.35
22651;BME280;11492;42.646;23.400;2023-01-29T15:07:33;95372.47;;;2.27;72.66
22651;BME280;11492;42.646;23.400;2023-01-29T15:10:13;95374.75;;;1.99;73.20
22651;BME280;11492;42.646;23.400;2023-01-29T15:12:51;95374.50;;;2.13;73.82
22651;BME280;11492;42.646;23.400;2023-01-29T15:18:22;95364.38;;;2.22;73.70
22651;BME280;11492;42.646;23.400;2023-01-29T15:21:01;95366.25;;;2.20;73.03
22651;BME280;11492;42.646;23.400;2023-01-29T15:23:32;95362.09;;;2.19;73.80
22651;BME280;11492;42.646;23.400;2023-01-29T15:26:05;95364.78;;;2.18;73.30
22651;BME280;11492;42.646;23.400;2023-01-29T15:28:32;95377.59;;;2.16;74.01
22651;BME280;11492;42.646;23.400;2023-01-29T15:31:00;95387.78;;;2.16;73.89